createdAt,value
2022-09-15T00:05:25.561Z,5.43
2022-09-15T00:15:27.670Z,5.65
2022-09-15T00:25:29.626Z,5.60
2022-09-15T00:35:40.301Z,5.60
2022-09-15T00:45:45.005Z,6.13
2022-09-15T00:55:50.846Z,6.30
2022-09-15T01:06:01.096Z,6.07
2022-09-15T01:16:32.724Z,6.70
2022-09-15T01:27:13.695Z,7.20
2022-09-15T01:37:31.628Z,7.80
2022-09-15T01:47:34.632Z,8.73
2022-09-15T01:57:38.991Z,9.07
2022-09-15T02:07:45.618Z,8.32
2022-09-15T02:17:55.624Z,9.13
2022-09-15T02:28:04.672Z,9.57
2022-09-15T02:38:11.369Z,8.20
2022-09-15T02:48:16.009Z,7.88
2022-09-15T02:58:20.499Z,8.15
2022-09-15T03:08:22.640Z,9.50
2022-09-15T03:18:27.417Z,8.98
2022-09-15T03:28:35.157Z,10.00
2022-09-15T03:38:39.448Z,9.98
2022-09-15T03:48:44.075Z,10.05
2022-09-15T03:58:47.714Z,10.32
2022-09-15T04:08:53.325Z,10.23
2022-09-15T04:18:56.844Z,8.88
2022-09-15T04:29:04.639Z,8.45
2022-09-15T04:39:10.680Z,10.13
2022-09-15T04:49:19.112Z,7.53
2022-09-15T04:59:24.220Z,6.97
2022-09-15T05:09:30.064Z,6.15
2022-09-15T05:19:34.368Z,6.03
2022-09-15T05:29:39.485Z,6.28
2022-09-15T05:39:50.884Z,7.60
2022-09-15T05:49:58.800Z,7.93
2022-09-15T06:00:04.980Z,6.05
2022-09-15T06:10:18.945Z,5.82
2022-09-15T06:20:21.603Z,5.97
2022-09-15T06:30:28.097Z,5.05
2022-09-15T06:40:31.178Z,4.13
2022-09-15T06:50:33.278Z,4.25
2022-09-15T07:00:38.957Z,3.30
2022-09-15T07:10:44.427Z,3.15
2022-09-15T07:20:51.584Z,3.03
2022-09-15T07:30:56.057Z,2.55
2022-09-15T07:41:06.588Z,3.05
2022-09-15T07:51:11.549Z,2.53
2022-09-15T08:01:18.209Z,2.47
2022-09-15T08:11:23.083Z,2.95
2022-09-15T08:21:29.821Z,2.17
2022-09-15T08:31:34.714Z,1.92
2022-09-15T08:41:40.263Z,2.00
2022-09-15T08:51:46.502Z,1.90
2022-09-15T09:02:06.205Z,1.88
2022-09-15T09:12:28.749Z,1.77
2022-09-15T09:22:37.169Z,1.85
2022-09-15T09:33:17.094Z,1.30
2022-09-15T09:43:20.440Z,1.60
2022-09-15T09:53:32.516Z,1.42
2022-09-15T10:03:39.193Z,1.65
2022-09-15T10:13:55.409Z,1.40
2022-09-15T10:24:39.987Z,1.33
2022-09-15T10:34:44.554Z,1.48
2022-09-15T10:45:06.299Z,1.85
2022-09-15T10:55:51.187Z,1.58
2022-09-15T11:06:20.269Z,2.20
2022-09-15T11:16:27.507Z,1.88
2022-09-15T11:27:04.760Z,1.48
2022-09-15T11:37:16.260Z,1.63
2022-09-15T11:47:38.940Z,1.65
2022-09-15T11:58:23.392Z,1.67
2022-09-15T12:08:53.791Z,1.98
2022-09-15T12:19:34.053Z,2.70
2022-09-15T12:29:48.348Z,3.38
2022-09-15T12:39:53.710Z,1.80
2022-09-15T12:50:23.401Z,1.35
2022-09-15T13:00:34.153Z,1.98
2022-09-15T13:10:43.565Z,2.25
2022-09-15T13:20:57.409Z,1.90
2022-09-15T13:31:08.453Z,1.92
2022-09-15T13:41:56.758Z,1.88
2022-09-15T13:52:26.545Z,1.98
2022-09-15T14:02:39.106Z,1.98
2022-09-15T14:12:53.793Z,2.03
2022-09-15T14:23:05.121Z,2.40
2022-09-15T14:33:16.160Z,2.35
2022-09-15T14:43:43.359Z,2.50
2022-09-15T14:53:54.138Z,1.80
2022-09-15T15:04:23.173Z,2.00
2022-09-15T15:14:26.320Z,2.00
2022-09-15T15:24:35.809Z,2.17
2022-09-15T15:34:40.997Z,2.58
2022-09-15T15:45:05.438Z,2.65
2022-09-15T15:55:14.225Z,2.35
2022-09-15T16:05:19.119Z,2.25
2022-09-15T16:15:30.004Z,2.40
2022-09-15T16:25:55.244Z,2.10
2022-09-15T16:36:07.215Z,3.00
2022-09-15T16:46:10.970Z,3.15
2022-09-15T16:56:16.890Z,2.40
2022-09-15T17:06:19.189Z,2.58
2022-09-15T17:16:28.616Z,2.67
2022-09-15T17:26:33.212Z,2.70
2022-09-15T17:36:39.266Z,2.60
2022-09-15T17:46:42.907Z,2.95
2022-09-15T17:56:53.252Z,3.10
2022-09-15T18:06:58.062Z,3.70
2022-09-15T18:17:01.232Z,3.40
2022-09-15T18:27:08.880Z,3.65
2022-09-15T18:37:19.570Z,3.15
2022-09-15T18:47:26.926Z,3.78
2022-09-15T18:57:30.138Z,3.72
2022-09-15T19:07:39.515Z,4.30
2022-09-15T19:17:47.565Z,3.92
2022-09-15T19:27:49.995Z,3.75
2022-09-15T19:37:52.933Z,3.45
2022-09-15T19:48:00.686Z,3.65
2022-09-15T19:58:06.236Z,4.50
2022-09-15T20:08:22.371Z,4.00
2022-09-15T20:18:35.675Z,4.68
2022-09-15T20:28:41.035Z,3.72
2022-09-15T20:38:46.089Z,4.25
2022-09-15T20:48:50.250Z,4.35
2022-09-15T20:58:57.169Z,4.47
2022-09-15T21:09:04.112Z,4.35
2022-09-15T21:19:15.251Z,4.88
2022-09-15T21:29:23.268Z,5.10
2022-09-15T21:39:26.782Z,4.82
2022-09-15T21:49:31.575Z,4.45
2022-09-15T21:59:36.619Z,4.32
2022-09-15T22:09:39.532Z,4.43
2022-09-15T22:19:44.249Z,4.35
2022-09-15T22:29:50.837Z,4.27
2022-09-15T22:39:59.534Z,4.40
2022-09-15T22:50:06.446Z,4.80
2022-09-15T23:00:09.332Z,4.50
2022-09-15T23:10:16.458Z,5.27
2022-09-15T23:20:26.191Z,4.87
2022-09-15T23:30:28.613Z,5.53
2022-09-15T23:40:37.634Z,4.83
2022-09-15T23:50:48.418Z,4.83
